Terminal Aerodrome Forecast
Issued by NWS

Home | Current Version | Previous Version | Graphics & Text | Print | Product List | Glossary Off
Versions: 1 2 3 4 5 6 7 8 9 10 11 12 13 14 15 16 17

000
FTUS43 KMPX 280825 AAA
TAFAXN
TAF AMD
KAXN 280825Z 2808/0106 02004KT P6SM OVC050
     FM281000 02007KT 3SM -SN BKN020 OVC040
     FM281300 01009KT 2SM -SN SCT008 OVC015
     FM281500 01011KT P6SM OVC012=

USA.gov is the U.S. government's official web portal to all federal, state and local government web resources and services.